createdAt,value
2023-02-23T00:01:44.909Z,101342.88
2023-02-23T00:04:14.496Z,101345.98
2023-02-23T00:06:43.884Z,101346.08
2023-02-23T00:09:15.062Z,101344.96
2023-02-23T00:11:44.864Z,101343.06
2023-02-23T00:14:14.684Z,101342.34
2023-02-23T00:16:47.134Z,101345.05
2023-02-23T00:19:15.842Z,101344.87
2023-02-23T00:21:45.544Z,101348.41
2023-02-23T00:24:16.884Z,101342.89
2023-02-23T00:26:48.263Z,101344.20
2023-02-23T00:29:20.783Z,101345.23
2023-02-23T00:31:50.061Z,101343.16
2023-02-23T00:34:24.196Z,101336.81
2023-02-23T00:36:55.497Z,101332.42
2023-02-23T00:39:26.945Z,101336.54
2023-02-23T00:41:57.231Z,101335.41
2023-02-23T00:44:26.470Z,101336.91
2023-02-23T00:46:55.967Z,101338.41
2023-02-23T00:49:25.300Z,101334.30
2023-02-23T00:51:55.077Z,101339.53
2023-02-23T00:54:24.359Z,101339.90
2023-02-23T00:56:53.710Z,101337.92
2023-02-23T00:59:24.514Z,101338.69
2023-02-23T01:01:54.073Z,101347.00
2023-02-23T01:04:26.055Z,101340.28
2023-02-23T01:06:57.061Z,101339.82
2023-02-23T01:09:28.368Z,101337.11
2023-02-23T01:12:00.020Z,101343.36
2023-02-23T01:14:31.318Z,101340.28
2023-02-23T01:17:01.378Z,101343.66
2023-02-23T01:19:32.247Z,101344.11
2023-02-23T01:22:04.664Z,101345.87
2023-02-23T01:24:34.248Z,101352.42
2023-02-23T01:27:05.338Z,101352.91
2023-02-23T01:29:36.083Z,101353.89
2023-02-23T01:32:05.819Z,101357.55
2023-02-23T01:34:35.273Z,101354.66
2023-02-23T01:37:04.810Z,101360.44
2023-02-23T01:39:34.244Z,101363.88
2023-02-23T01:42:05.427Z,101364.45
2023-02-23T01:44:39.605Z,101367.17
2023-02-23T01:47:08.995Z,101371.00
2023-02-23T01:49:38.393Z,101375.66
2023-02-23T01:52:12.578Z,101374.20
2023-02-23T01:54:51.421Z,101369.60
2023-02-23T01:57:24.504Z,101370.42
2023-02-23T01:59:55.114Z,101367.75
2023-02-23T02:02:29.190Z,101367.80
2023-02-23T02:05:01.976Z,101366.50
2023-02-23T02:07:34.324Z,101372.58
2023-02-23T02:10:14.569Z,101369.05
2023-02-23T02:12:51.333Z,101367.92
2023-02-23T02:15:23.676Z,101375.32
2023-02-23T02:18:19.008Z,101368.77
2023-02-23T02:21:11.854Z,101369.14
2023-02-23T02:24:04.301Z,101375.41
2023-02-23T02:26:55.318Z,101367.34
2023-02-23T02:29:56.118Z,101373.89
2023-02-23T02:32:50.042Z,101365.28
2023-02-23T02:35:47.090Z,101366.50
2023-02-23T02:38:27.900Z,101365.67
2023-02-23T02:41:09.147Z,101365.67
2023-02-23T02:43:58.566Z,101365.28
2023-02-23T02:46:33.659Z,101363.61
2023-02-23T02:49:06.919Z,101358.56
2023-02-23T02:51:49.092Z,101356.89
2023-02-23T02:54:33.520Z,101363.80
2023-02-23T02:57:04.972Z,101362.58
2023-02-23T03:00:03.679Z,101359.59
2023-02-23T03:02:52.870Z,101355.19
2023-02-23T03:05:43.192Z,101366.77
2023-02-23T03:09:06.752Z,101366.41
2023-02-23T03:12:03.485Z,101367.17
2023-02-23T03:15:09.308Z,101371.28
2023-02-23T03:18:09.665Z,101366.04
2023-02-23T03:21:02.806Z,101369.20
2023-02-23T03:24:03.121Z,101369.20
2023-02-23T03:26:56.507Z,101367.75
2023-02-23T03:29:54.675Z,101368.56
2023-02-23T03:32:48.161Z,101375.59
2023-02-23T03:35:59.750Z,101370.36
2023-02-23T03:39:02.621Z,101366.59
2023-02-23T03:41:50.282Z,101366.50
2023-02-23T03:44:40.481Z,101372.48
2023-02-23T03:47:28.887Z,101378.58
2023-02-23T03:50:17.317Z,101377.54
2023-02-23T03:53:07.561Z,101377.45
2023-02-23T03:55:56.916Z,101382.05
2023-02-23T03:58:59.350Z,101382.14
2023-02-23T04:01:46.759Z,101380.98
2023-02-23T04:04:35.123Z,101382.02
2023-02-23T04:07:22.997Z,101388.56
2023-02-23T04:10:10.677Z,101378.95
2023-02-23T04:13:03.471Z,101355.83
2023-02-23T04:15:37.300Z,101389.97
2023-02-23T04:18:07.602Z,101389.87
2023-02-23T04:20:37.117Z,101395.96
2023-02-23T04:23:06.403Z,101393.53
2023-02-23T04:25:36.026Z,101389.20
2023-02-23T04:28:05.410Z,101391.28
2023-02-23T04:30:35.046Z,101395.11
2023-02-23T04:33:04.486Z,101396.70
2023-02-23T04:35:34.109Z,101398.09
2023-02-23T04:38:03.655Z,101392.59
2023-02-23T04:40:33.588Z,101391.37
2023-02-23T04:43:02.870Z,101390.52
2023-02-23T04:45:32.261Z,101394.26
2023-02-23T04:48:01.878Z,101399.19
2023-02-23T04:50:32.597Z,101396.20
2023-02-23T04:53:02.023Z,101401.98
2023-02-23T04:55:32.816Z,101400.59
2023-02-23T04:58:03.281Z,101403.57
2023-02-23T05:00:34.060Z,101400.95
2023-02-23T05:03:03.468Z,101402.84
2023-02-23T05:05:33.508Z,101404.73
2023-02-23T05:08:02.914Z,101408.75
2023-02-23T05:10:32.149Z,101411.45
2023-02-23T05:13:01.483Z,101415.20
2023-02-23T05:15:30.932Z,101416.33
2023-02-23T05:18:00.392Z,101418.58
2023-02-23T05:20:29.717Z,101416.87
2023-02-23T05:22:59.438Z,101420.06
2023-02-23T05:25:28.689Z,101424.08
2023-02-23T05:27:58.103Z,101417.72
2023-02-23T05:30:27.497Z,101429.59
2023-02-23T05:32:56.966Z,101429.73
2023-02-23T05:35:26.401Z,101426.88
2023-02-23T05:37:55.981Z,101434.16
2023-02-23T05:40:25.586Z,101435.01
2023-02-23T05:42:58.373Z,101431.53
2023-02-23T05:45:27.623Z,101433.52
2023-02-23T05:47:57.419Z,101434.16
2023-02-23T05:50:27.175Z,101433.30
2023-02-23T05:52:56.710Z,101430.86
2023-02-23T05:55:26.062Z,101431.41
2023-02-23T05:57:56.165Z,101436.99
2023-02-23T06:00:25.677Z,101436.27
2023-02-23T06:02:55.674Z,101431.48
2023-02-23T06:05:25.199Z,101435.05
2023-02-23T06:07:54.413Z,101435.12
2023-02-23T06:10:24.075Z,101439.59
2023-02-23T06:12:53.296Z,101429.22
2023-02-23T06:15:22.666Z,101437.89
2023-02-23T06:17:51.948Z,101441.27
2023-02-23T06:20:26.145Z,101439.69
2023-02-23T06:22:55.475Z,101440.14
2023-02-23T06:25:25.442Z,101444.52
2023-02-23T06:27:57.558Z,101452.94
2023-02-23T06:30:27.100Z,101452.55
2023-02-23T06:32:56.783Z,101450.67
2023-02-23T06:35:27.659Z,101456.81
2023-02-23T06:37:57.428Z,101462.45
2023-02-23T06:40:26.945Z,101456.27
2023-02-23T06:42:56.543Z,101460.02
2023-02-23T06:45:25.786Z,101464.80
2023-02-23T06:47:55.389Z,101465.94
2023-02-23T06:50:24.733Z,101476.77
2023-02-23T06:52:54.461Z,101475.19
2023-02-23T06:55:24.287Z,101482.41
2023-02-23T06:57:54.585Z,101481.28
2023-02-23T07:00:24.862Z,101486.97
2023-02-23T07:02:54.187Z,101493.05
2023-02-23T07:05:23.737Z,101496.75
2023-02-23T07:07:53.308Z,101502.20
2023-02-23T07:10:22.858Z,101507.87
2023-02-23T07:12:54.192Z,101507.34
2023-02-23T07:15:23.508Z,101506.08
2023-02-23T07:17:53.009Z,101510.00
2023-02-23T07:20:22.905Z,101519.90
2023-02-23T07:22:52.771Z,101519.63
2023-02-23T07:25:22.547Z,101524.50
2023-02-23T07:27:55.703Z,101528.25
2023-02-23T07:30:27.759Z,101534.70
2023-02-23T07:33:01.278Z,101532.30
2023-02-23T07:35:39.142Z,101540.75
2023-02-23T07:38:18.848Z,101551.80
2023-02-23T07:40:55.154Z,101551.63
2023-02-23T07:43:39.107Z,101554.25
2023-02-23T07:46:09.225Z,101559.79
2023-02-23T07:48:42.625Z,101561.16
2023-02-23T07:51:27.821Z,101567.47
2023-02-23T07:53:57.488Z,101568.29
2023-02-23T07:56:27.528Z,101571.09
2023-02-23T07:58:56.834Z,101573.53
2023-02-23T08:01:26.522Z,101574.11
2023-02-23T08:03:56.069Z,101571.94
2023-02-23T08:06:25.768Z,101581.56
2023-02-23T08:08:55.648Z,101580.34
2023-02-23T08:11:25.230Z,101585.58
2023-02-23T08:13:55.185Z,101584.67
2023-02-23T08:16:24.494Z,101580.76
2023-02-23T08:18:54.054Z,101585.36
2023-02-23T08:21:23.327Z,101589.50
2023-02-23T08:23:52.658Z,101593.08
2023-02-23T08:26:25.837Z,101591.36
2023-02-23T08:28:56.124Z,101593.34
2023-02-23T08:31:27.286Z,101601.48
2023-02-23T08:33:56.666Z,101598.22
2023-02-23T08:36:26.519Z,101602.09
2023-02-23T08:38:55.736Z,101605.35
2023-02-23T08:41:25.934Z,101614.25
2023-02-23T08:43:55.660Z,101608.19
2023-02-23T08:46:25.472Z,101614.64
2023-02-23T08:48:54.711Z,101616.53
2023-02-23T08:51:24.256Z,101610.92
2023-02-23T08:53:53.769Z,101621.13
2023-02-23T08:56:24.778Z,101621.97
2023-02-23T08:58:54.298Z,101628.81
2023-02-23T09:01:23.569Z,101634.34
2023-02-23T09:03:53.122Z,101633.79
2023-02-23T09:06:25.438Z,101640.88
2023-02-23T09:08:56.256Z,101635.18
2023-02-23T09:11:25.575Z,101637.24
2023-02-23T09:13:55.531Z,101636.41
2023-02-23T09:16:25.444Z,101633.20
2023-02-23T09:18:54.953Z,101640.91
2023-02-23T09:21:26.034Z,101647.06
2023-02-23T09:23:56.250Z,101650.16
2023-02-23T09:26:27.655Z,101656.72
2023-02-23T09:28:58.828Z,101653.13
2023-02-23T09:31:28.735Z,101657.75
2023-02-23T09:33:59.642Z,101655.41
2023-02-23T09:36:31.581Z,101663.92
2023-02-23T09:39:01.485Z,101663.09
2023-02-23T09:41:46.052Z,101665.06
2023-02-23T09:44:39.745Z,101663.00
2023-02-23T09:47:30.821Z,101663.09
2023-02-23T09:50:05.823Z,101656.42
2023-02-23T09:52:38.959Z,101666.05
2023-02-23T09:55:11.685Z,101663.71
2023-02-23T09:57:44.083Z,101659.50
2023-02-23T10:00:19.527Z,101668.70
2023-02-23T10:03:04.150Z,101676.22
2023-02-23T10:05:36.575Z,101674.74
2023-02-23T10:08:11.617Z,101678.69
2023-02-23T10:11:02.339Z,101669.00
2023-02-23T10:13:45.779Z,101670.95
2023-02-23T10:16:36.396Z,101669.73
2023-02-23T10:19:12.998Z,101666.75
2023-02-23T10:21:45.075Z,101666.27
2023-02-23T10:24:31.456Z,101669.23
2023-02-23T10:27:20.915Z,101674.58
2023-02-23T10:29:52.698Z,101678.13
2023-02-23T10:32:25.321Z,101675.86
2023-02-23T10:34:56.883Z,101683.02
2023-02-23T10:37:27.704Z,101688.48
2023-02-23T10:39:57.245Z,101687.73
2023-02-23T10:42:30.069Z,101692.10
2023-02-23T10:45:00.980Z,101694.21
2023-02-23T10:47:32.518Z,101687.22
2023-02-23T10:50:02.457Z,101693.42
2023-02-23T10:52:41.710Z,101690.84
2023-02-23T10:55:10.841Z,101689.23
2023-02-23T10:57:41.315Z,101691.34
2023-02-23T11:00:24.147Z,101688.42
2023-02-23T11:02:52.650Z,101690.49
2023-02-23T11:05:40.088Z,101688.20
2023-02-23T11:08:33.269Z,101698.88
2023-02-23T11:11:19.225Z,101693.23
2023-02-23T11:13:52.238Z,101694.92
2023-02-23T11:16:26.793Z,101689.86
2023-02-23T11:19:01.575Z,101692.38
2023-02-23T11:21:36.986Z,101686.42
2023-02-23T11:24:09.550Z,101686.05
2023-02-23T11:26:39.111Z,101695.27
2023-02-23T11:29:29.680Z,101694.16
2023-02-23T11:32:00.162Z,101696.69
2023-02-23T11:34:33.147Z,101697.89
2023-02-23T11:37:07.976Z,101695.96
2023-02-23T11:39:38.912Z,101694.77
2023-02-23T11:42:17.528Z,101694.73
2023-02-23T11:44:52.343Z,101693.16
2023-02-23T11:47:23.337Z,101693.50
2023-02-23T11:49:53.212Z,101693.33
2023-02-23T11:52:23.802Z,101682.31
2023-02-23T11:54:58.903Z,101673.31
2023-02-23T11:57:31.998Z,101672.34
2023-02-23T12:00:04.600Z,101675.73
2023-02-23T12:02:40.697Z,101678.71
2023-02-23T12:05:25.331Z,101676.98
2023-02-23T12:08:09.646Z,101676.14
2023-02-23T12:10:51.183Z,101680.33
2023-02-23T12:13:29.403Z,101691.33
2023-02-23T12:16:21.741Z,101681.87
2023-02-23T12:19:03.306Z,101679.44
2023-02-23T12:21:35.915Z,101682.59
2023-02-23T12:24:18.620Z,101674.97
2023-02-23T12:26:52.730Z,101673.50
2023-02-23T12:29:59.523Z,101673.70
2023-02-23T12:32:32.492Z,101670.57
2023-02-23T12:35:07.990Z,101671.27
2023-02-23T12:37:46.140Z,101677.77
2023-02-23T12:40:18.458Z,101678.78
2023-02-23T12:42:56.847Z,101679.47
2023-02-23T12:45:32.085Z,101682.50
2023-02-23T12:48:10.042Z,101680.63
2023-02-23T12:50:43.615Z,101684.75
2023-02-23T12:53:19.037Z,101681.08
2023-02-23T12:56:01.670Z,101679.13
2023-02-23T12:58:50.304Z,101677.52
2023-02-23T13:01:27.167Z,101687.01
2023-02-23T13:04:08.992Z,101691.12
2023-02-23T13:06:53.422Z,101690.36
2023-02-23T13:09:29.208Z,101686.80
2023-02-23T13:12:10.476Z,101691.84
2023-02-23T13:15:08.338Z,101690.27
2023-02-23T13:17:43.867Z,101692.20
2023-02-23T13:20:28.764Z,101687.44
2023-02-23T13:23:01.182Z,101683.62
2023-02-23T13:25:54.201Z,101683.61
2023-02-23T13:28:24.329Z,101683.98
2023-02-23T13:30:53.914Z,101683.43
2023-02-23T13:33:35.011Z,101691.13
2023-02-23T13:35:58.267Z,101688.61
2023-02-23T13:38:33.861Z,101684.75
2023-02-23T13:41:12.806Z,101676.86
2023-02-23T13:43:52.226Z,101674.99
2023-02-23T13:46:48.465Z,101674.97
2023-02-23T13:49:39.360Z,101669.06
2023-02-23T13:52:14.566Z,101675.06
2023-02-23T13:54:57.053Z,101680.54
2023-02-23T13:57:28.238Z,101681.29
2023-02-23T13:59:58.479Z,101677.64
2023-02-23T14:02:38.882Z,101683.61
2023-02-23T14:05:14.139Z,101680.48
2023-02-23T14:07:45.221Z,101687.05
2023-02-23T14:10:25.670Z,101682.59
2023-02-23T14:13:07.356Z,101688.27
2023-02-23T14:15:40.212Z,101685.69
2023-02-23T14:18:26.253Z,101680.98
2023-02-23T14:21:18.835Z,101681.39
2023-02-23T14:24:15.107Z,101685.42
2023-02-23T14:26:47.384Z,101689.42
2023-02-23T14:29:20.548Z,101683.22
2023-02-23T14:32:03.651Z,101686.49
2023-02-23T14:34:52.305Z,101693.12
2023-02-23T14:37:27.077Z,101690.69
2023-02-23T14:40:00.710Z,101684.73
2023-02-23T14:42:30.361Z,101684.13
2023-02-23T14:45:02.763Z,101684.83
2023-02-23T14:47:35.314Z,101675.46
2023-02-23T14:50:04.883Z,101692.02
2023-02-23T14:52:40.626Z,101689.38
2023-02-23T14:55:15.753Z,101686.66
2023-02-23T14:57:45.620Z,101690.23
2023-02-23T15:00:31.034Z,101679.92
2023-02-23T15:03:10.431Z,101677.20
2023-02-23T15:05:54.808Z,101678.32
2023-02-23T15:08:26.316Z,101683.67
2023-02-23T15:11:07.486Z,101676.42
2023-02-23T15:16:11.933Z,101681.28
2023-02-23T15:18:44.064Z,101681.67
2023-02-23T15:21:19.193Z,101676.04
2023-02-23T15:23:54.837Z,101681.66
2023-02-23T15:26:31.068Z,101684.37
2023-02-23T15:29:14.638Z,101687.30
2023-02-23T15:31:52.839Z,101682.91
2023-02-23T15:34:25.166Z,101680.33
2023-02-23T15:37:00.511Z,101685.59
2023-02-23T15:39:48.215Z,101691.80
2023-02-23T15:42:19.613Z,101697.39
2023-02-23T15:44:57.529Z,101694.77
2023-02-23T15:47:29.483Z,101695.09
2023-02-23T15:50:05.620Z,101703.83
2023-02-23T15:52:36.464Z,101692.41
2023-02-23T15:55:10.246Z,101696.53
2023-02-23T15:57:57.169Z,101690.27
2023-02-23T16:00:40.808Z,101698.42
2023-02-23T16:03:29.859Z,101706.49
2023-02-23T16:06:11.323Z,101704.71
2023-02-23T16:08:43.858Z,101701.89
2023-02-23T16:11:16.031Z,101704.80
2023-02-23T16:13:46.399Z,101708.94
2023-02-23T16:16:19.657Z,101702.92
2023-02-23T16:18:53.921Z,101708.00
2023-02-23T16:21:25.300Z,101710.63
2023-02-23T16:23:55.676Z,101702.36
2023-02-23T16:26:29.459Z,101706.86
2023-02-23T16:29:00.853Z,101706.69
2023-02-23T16:31:48.597Z,101696.17
2023-02-23T16:34:29.681Z,101712.12
2023-02-23T16:37:01.626Z,101713.70
2023-02-23T16:39:34.332Z,101712.00
2023-02-23T16:42:04.016Z,101716.52
2023-02-23T16:44:42.900Z,101714.48
2023-02-23T16:47:08.246Z,101716.88
2023-02-23T16:49:37.748Z,101724.05
2023-02-23T16:52:11.933Z,101723.14
2023-02-23T16:54:41.163Z,101716.39
2023-02-23T16:57:14.079Z,101727.70
2023-02-23T16:59:43.319Z,101718.53
2023-02-23T17:02:14.138Z,101716.49
2023-02-23T17:04:45.961Z,101705.58
2023-02-23T17:07:17.195Z,101727.63
2023-02-23T17:09:47.885Z,101729.81
2023-02-23T17:12:21.933Z,101733.90
2023-02-23T17:14:51.204Z,101742.08
2023-02-23T17:17:21.814Z,101739.83
2023-02-23T17:19:51.064Z,101738.11
2023-02-23T17:22:20.436Z,101744.17
2023-02-23T17:24:49.873Z,101740.89
2023-02-23T17:27:19.211Z,101745.35
2023-02-23T17:29:48.432Z,101748.05
2023-02-23T17:32:18.229Z,101750.75
2023-02-23T17:34:49.337Z,101756.52
2023-02-23T17:37:21.824Z,101758.14
2023-02-23T17:39:50.998Z,101762.68
2023-02-23T17:42:20.674Z,101760.52
2023-02-23T17:44:49.971Z,101760.97
2023-02-23T17:47:20.047Z,101764.39
2023-02-23T17:49:49.349Z,101771.91
2023-02-23T17:52:19.605Z,101771.16
2023-02-23T17:54:49.097Z,101771.53
2023-02-23T17:57:18.696Z,101772.47
2023-02-23T17:59:47.971Z,101777.86
2023-02-23T18:02:20.574Z,101779.55
2023-02-23T18:04:51.434Z,101781.01
2023-02-23T18:07:22.280Z,101789.16
2023-02-23T18:09:51.739Z,101780.09
2023-02-23T18:12:21.776Z,101786.94
2023-02-23T18:14:51.095Z,101794.45
2023-02-23T18:17:20.680Z,101793.30
2023-02-23T18:19:51.056Z,101793.87
2023-02-23T18:22:20.871Z,101796.86
2023-02-23T18:24:50.086Z,101795.55
2023-02-23T18:27:19.423Z,101795.17
2023-02-23T18:29:48.636Z,101796.67
2023-02-23T18:32:18.421Z,101792.84
2023-02-23T18:34:47.973Z,101785.68
2023-02-23T18:37:18.888Z,101801.61
2023-02-23T18:39:49.899Z,101807.62
2023-02-23T18:42:19.404Z,101809.08
2023-02-23T18:44:48.958Z,101811.44
2023-02-23T18:47:18.299Z,101814.61
2023-02-23T18:49:47.682Z,101823.05
2023-02-23T18:52:17.022Z,101831.83
2023-02-23T18:54:46.269Z,101836.42
2023-02-23T18:57:16.034Z,101825.22
2023-02-23T18:59:47.479Z,101841.58
2023-02-23T19:02:18.713Z,101839.26
2023-02-23T19:04:48.112Z,101837.39
2023-02-23T19:07:18.738Z,101846.95
2023-02-23T19:09:48.187Z,101847.84
2023-02-23T19:12:17.408Z,101839.41
2023-02-23T19:14:49.842Z,101847.69
2023-02-23T19:17:17.946Z,101842.16
2023-02-23T19:19:47.347Z,101839.29
2023-02-23T19:22:17.191Z,101837.91
2023-02-23T19:24:47.085Z,101838.39
2023-02-23T19:27:17.612Z,101835.85
2023-02-23T19:29:47.652Z,101836.30
2023-02-23T19:32:18.101Z,101838.66
2023-02-23T19:34:47.633Z,101839.34
2023-02-23T19:37:16.876Z,101839.16
2023-02-23T19:39:46.386Z,101843.63
2023-02-23T19:42:17.322Z,101834.48
2023-02-23T19:44:46.812Z,101837.63
2023-02-23T19:47:16.120Z,101832.98
2023-02-23T19:49:45.814Z,101829.73
2023-02-23T19:52:15.149Z,101823.49
2023-02-23T19:54:44.788Z,101828.03
2023-02-23T19:57:14.112Z,101828.17
2023-02-23T19:59:43.815Z,101827.17
2023-02-23T20:02:13.339Z,101824.06
2023-02-23T20:04:42.770Z,101825.27
2023-02-23T20:07:12.048Z,101821.56
2023-02-23T20:09:41.609Z,101818.09
2023-02-23T20:12:10.978Z,101817.58
2023-02-23T20:14:41.615Z,101821.33
2023-02-23T20:17:12.514Z,101822.16
2023-02-23T20:19:41.902Z,101820.09
2023-02-23T20:22:11.309Z,101823.63
2023-02-23T20:24:40.650Z,101821.22
2023-02-23T20:27:10.259Z,101819.59
2023-02-23T20:29:39.949Z,101818.05
2023-02-23T20:32:09.716Z,101818.41
2023-02-23T20:34:39.393Z,101819.20
2023-02-23T20:37:09.150Z,101821.15
2023-02-23T20:39:38.555Z,101816.44
2023-02-23T20:44:48.294Z,101810.63
2023-02-23T20:47:17.725Z,101808.97
2023-02-23T20:49:46.990Z,101805.44
2023-02-23T20:52:16.500Z,101810.88
2023-02-23T20:54:46.148Z,101815.84
2023-02-23T20:57:15.496Z,101806.14
2023-02-23T20:59:45.239Z,101805.29
2023-02-23T21:02:15.444Z,101801.31
2023-02-23T21:04:45.322Z,101798.20
2023-02-23T21:07:14.770Z,101800.14
2023-02-23T21:09:44.214Z,101810.15
2023-02-23T21:12:13.943Z,101800.96
2023-02-23T21:14:43.653Z,101794.03
2023-02-23T21:17:12.941Z,101793.30
2023-02-23T21:19:42.233Z,101795.43
2023-02-23T21:22:13.096Z,101795.38
2023-02-23T21:24:43.510Z,101805.00
2023-02-23T21:27:13.173Z,101793.26
2023-02-23T21:29:43.823Z,101794.62
2023-02-23T21:32:14.493Z,101802.38
2023-02-23T21:34:45.929Z,101795.33
2023-02-23T21:37:16.033Z,101794.36
2023-02-23T21:39:47.072Z,101798.16
2023-02-23T21:42:16.450Z,101791.02
2023-02-23T21:44:50.025Z,101794.81
2023-02-23T21:47:21.190Z,101795.27
2023-02-23T21:49:55.256Z,101790.78
2023-02-23T21:52:24.919Z,101799.13
2023-02-23T21:54:55.095Z,101799.01
2023-02-23T21:57:26.528Z,101796.56
2023-02-23T21:59:57.564Z,101802.97
2023-02-23T22:02:30.030Z,101804.98
2023-02-23T22:05:01.330Z,101806.87
2023-02-23T22:07:32.323Z,101806.45
2023-02-23T22:10:03.236Z,101813.59
2023-02-23T22:12:35.325Z,101800.52
2023-02-23T22:15:09.612Z,101800.34
2023-02-23T22:17:39.626Z,101798.94
2023-02-23T22:20:23.037Z,101796.80
2023-02-23T22:22:52.698Z,101804.94
2023-02-23T22:25:22.099Z,101802.43
2023-02-23T22:28:18.935Z,101800.30
2023-02-23T22:30:52.170Z,101794.03
2023-02-23T22:33:26.379Z,101791.19
2023-02-23T22:35:58.165Z,101785.51
2023-02-23T22:38:27.562Z,101788.70
2023-02-23T22:40:57.308Z,101785.66
2023-02-23T22:43:27.611Z,101786.88
2023-02-23T22:45:58.412Z,101790.00
2023-02-23T22:48:28.779Z,101785.73
2023-02-23T22:50:58.920Z,101775.17
2023-02-23T22:53:28.986Z,101784.05
2023-02-23T22:55:59.614Z,101780.75
2023-02-23T22:58:29.140Z,101780.23
2023-02-23T23:01:05.801Z,101774.92
2023-02-23T23:03:45.109Z,101775.83
2023-02-23T23:06:22.208Z,101777.18
2023-02-23T23:08:54.648Z,101779.30
2023-02-23T23:11:26.775Z,101775.50
2023-02-23T23:14:00.529Z,101773.61
2023-02-23T23:16:33.370Z,101763.91
2023-02-23T23:19:07.497Z,101766.20
2023-02-23T23:21:37.367Z,101763.28
2023-02-23T23:24:08.142Z,101763.49
2023-02-23T23:26:39.784Z,101755.43
2023-02-23T23:29:12.067Z,101754.81
2023-02-23T23:31:45.950Z,101744.22
2023-02-23T23:34:22.476Z,101744.09
2023-02-23T23:36:53.372Z,101751.50
2023-02-23T23:39:26.458Z,101749.55
2023-02-23T23:41:55.767Z,101748.50
2023-02-23T23:44:29.945Z,101742.31
2023-02-23T23:46:59.684Z,101738.70
2023-02-23T23:49:29.195Z,101737.23
2023-02-23T23:51:58.399Z,101736.74
2023-02-23T23:54:31.093Z,101725.19
2023-02-23T23:57:01.982Z,101721.95
2023-02-23T23:59:32.670Z,101715.86
